createdAt,value
2019-01-11T00:01:45.226Z,101674.40
2019-01-11T00:06:51.623Z,101660.77
2019-01-11T00:11:58.039Z,101656.92
2019-01-11T00:17:07.393Z,101655.58
2019-01-11T00:22:14.306Z,101653.23
2019-01-11T00:27:20.647Z,101650.80
2019-01-11T00:32:28.878Z,101637.79
2019-01-11T00:37:35.253Z,101644.33
2019-01-11T00:42:43.331Z,101634.30
2019-01-11T00:47:51.386Z,101637.69
2019-01-11T00:52:57.490Z,101635.38
2019-01-11T00:58:03.436Z,101626.93
2019-01-11T01:03:09.828Z,101618.27
2019-01-11T01:08:15.958Z,101610.22
2019-01-11T01:13:22.616Z,101607.86
2019-01-11T01:18:28.446Z,101610.35
2019-01-11T01:23:36.016Z,101602.45
2019-01-11T01:28:42.284Z,101609.56
2019-01-11T01:33:48.308Z,101604.50
2019-01-11T01:38:54.062Z,101618.80
2019-01-11T01:43:59.847Z,101599.48
2019-01-11T01:49:06.565Z,101602.11
2019-01-11T01:54:14.213Z,101595.67
2019-01-11T01:59:20.439Z,101590.89
2019-01-11T02:04:26.609Z,101590.47
2019-01-11T02:09:34.097Z,101579.91
2019-01-11T02:14:41.182Z,101573.31
2019-01-11T02:19:48.453Z,101570.21
2019-01-11T02:24:57.261Z,101568.34
2019-01-11T02:30:04.163Z,101569.52
2019-01-11T02:35:10.870Z,101565.05
2019-01-11T02:40:19.043Z,101552.20
2019-01-11T02:45:26.634Z,101542.02
2019-01-11T02:50:32.840Z,101543.36
2019-01-11T02:55:41.106Z,101529.48
2019-01-11T03:00:48.035Z,101517.68
2019-01-11T03:05:54.466Z,101509.27
2019-01-11T03:11:02.266Z,101504.31
2019-01-11T03:16:08.942Z,101494.89
2019-01-11T03:21:15.015Z,101480.64
2019-01-11T03:26:21.431Z,101471.05
2019-01-11T03:31:29.437Z,101465.89
2019-01-11T03:36:36.394Z,101459.78
2019-01-11T03:41:44.324Z,101457.75
2019-01-11T03:46:50.952Z,101445.02
2019-01-11T03:51:59.032Z,101438.34
2019-01-11T03:57:05.507Z,101433.20
2019-01-11T04:02:12.403Z,101431.42
2019-01-11T04:07:20.984Z,101421.53
2019-01-11T04:12:27.600Z,101410.77
2019-01-11T04:17:34.283Z,101401.71
2019-01-11T04:22:42.562Z,101410.09
2019-01-11T04:27:50.202Z,101397.41
2019-01-11T04:32:57.244Z,101390.25
2019-01-11T04:38:04.008Z,101378.02
2019-01-11T04:43:10.773Z,101359.27
2019-01-11T04:48:17.715Z,101350.26
2019-01-11T04:53:24.487Z,101349.81
2019-01-11T04:58:31.823Z,101345.46
2019-01-11T05:03:39.482Z,101344.34
2019-01-11T05:08:45.336Z,101337.22
2019-01-11T05:13:52.377Z,101331.94
2019-01-11T05:18:58.699Z,101312.30
2019-01-11T05:24:05.747Z,101309.16
2019-01-11T05:29:12.108Z,101292.87
2019-01-11T05:34:18.938Z,101287.47
2019-01-11T05:39:25.375Z,101299.34
2019-01-11T05:44:32.385Z,101296.94
2019-01-11T05:49:38.652Z,101274.19
2019-01-11T05:54:44.992Z,101268.42
2019-01-11T05:59:52.058Z,101264.69
2019-01-11T06:04:59.636Z,101254.00
2019-01-11T06:10:12.842Z,101250.20
2019-01-11T06:15:19.575Z,101243.81
2019-01-11T06:20:30.183Z,101239.31
2019-01-11T06:25:35.606Z,101231.02
2019-01-11T06:30:43.415Z,101216.17
2019-01-11T06:35:49.938Z,101212.78
2019-01-11T06:40:56.503Z,101212.53
2019-01-11T06:46:03.133Z,101202.61
2019-01-11T06:51:09.680Z,101202.53
2019-01-11T06:56:16.389Z,101194.81
2019-01-11T07:01:23.119Z,101190.70
2019-01-11T07:06:30.626Z,101199.84
2019-01-11T07:11:37.822Z,101195.39
2019-01-11T07:16:44.463Z,101191.59
2019-01-11T07:21:51.535Z,101195.52
2019-01-11T07:26:57.905Z,101195.15
2019-01-11T07:32:04.611Z,101196.56
2019-01-11T07:37:12.122Z,101192.95
2019-01-11T07:42:20.039Z,101190.83
2019-01-11T07:47:27.192Z,101193.59
2019-01-11T07:52:34.145Z,101187.05
2019-01-11T07:57:41.871Z,101184.09
2019-01-11T08:02:51.888Z,101178.84
2019-01-11T08:07:58.298Z,101178.70
2019-01-11T08:13:06.023Z,101179.46
2019-01-11T08:18:12.695Z,101167.91
2019-01-11T08:23:19.238Z,101158.68
2019-01-11T08:28:26.379Z,101151.61
2019-01-11T08:33:32.938Z,101139.47
2019-01-11T08:38:39.439Z,101135.42
2019-01-11T08:43:46.089Z,101125.95
2019-01-11T08:48:52.132Z,101130.72
2019-01-11T08:53:58.953Z,101119.66
2019-01-11T08:59:05.156Z,101121.55
2019-01-11T09:04:12.229Z,101106.00
2019-01-11T09:09:18.285Z,101107.22
2019-01-11T09:14:29.115Z,101098.94
2019-01-11T09:19:35.771Z,101091.95
2019-01-11T09:24:43.383Z,101095.64
2019-01-11T09:29:50.188Z,101088.68
2019-01-11T09:34:56.248Z,101089.36
2019-01-11T09:40:02.918Z,101097.05
2019-01-11T09:45:11.230Z,101064.45
2019-01-11T09:50:21.042Z,101055.68
2019-01-11T09:55:27.536Z,101061.73
2019-01-11T10:00:34.342Z,101061.09
2019-01-11T10:05:43.394Z,101051.22
2019-01-11T10:10:50.629Z,101052.92
2019-01-11T10:15:58.776Z,101048.53
2019-01-11T10:21:04.819Z,101033.50
2019-01-11T10:26:12.111Z,101009.22
2019-01-11T10:31:18.826Z,101005.84
2019-01-11T10:36:25.247Z,101000.17
2019-01-11T10:41:32.589Z,100987.20
2019-01-11T10:46:40.269Z,100988.49
2019-01-11T10:51:47.093Z,100982.55
2019-01-11T10:56:52.924Z,100973.11
2019-01-11T11:01:59.803Z,100967.00
2019-01-11T11:07:05.604Z,100957.00
2019-01-11T11:12:11.311Z,100959.44
2019-01-11T11:17:17.098Z,100944.08
2019-01-11T11:22:23.372Z,100937.77
2019-01-11T11:27:29.206Z,100929.92
2019-01-11T11:32:36.793Z,100914.92
2019-01-11T11:37:43.381Z,100902.60
2019-01-11T11:42:49.974Z,100886.73
2019-01-11T11:47:56.308Z,100882.70
2019-01-11T11:53:02.352Z,100881.63
2019-01-11T11:58:08.337Z,100855.62
2019-01-11T12:03:14.034Z,100854.83
2019-01-11T12:08:20.188Z,100840.91
2019-01-11T12:13:26.489Z,100822.86
2019-01-11T12:18:32.822Z,100823.20
2019-01-11T12:23:38.960Z,100811.00
2019-01-11T12:28:45.258Z,100791.23
2019-01-11T12:33:51.196Z,100799.58
2019-01-11T12:38:56.857Z,100784.98
2019-01-11T12:44:02.558Z,100780.29
2019-01-11T12:49:08.375Z,100784.48
2019-01-11T12:54:15.985Z,100772.02
2019-01-11T12:59:23.354Z,100766.51
2019-01-11T13:04:30.388Z,100763.69
2019-01-11T13:09:38.669Z,100745.59
2019-01-11T13:14:44.571Z,100749.31
2019-01-11T13:19:50.167Z,100738.17
2019-01-11T13:24:55.878Z,100731.66
2019-01-11T13:30:01.786Z,100727.53
2019-01-11T13:35:08.678Z,100727.45
2019-01-11T13:40:19.876Z,100718.67
2019-01-11T13:45:26.523Z,100715.26
2019-01-11T13:50:37.658Z,100724.06
2019-01-11T13:55:43.475Z,100705.41
2019-01-11T14:00:49.379Z,100694.95
2019-01-11T14:05:55.368Z,100687.67
2019-01-11T14:11:01.365Z,100697.73
2019-01-11T14:16:07.481Z,100701.61
2019-01-11T14:21:13.994Z,100696.65
2019-01-11T14:26:19.911Z,100699.45
2019-01-11T14:31:25.755Z,100698.54
2019-01-11T14:36:31.697Z,100692.30
2019-01-11T14:41:37.888Z,100690.21
2019-01-11T14:46:43.928Z,100682.34
2019-01-11T14:51:50.120Z,100691.05
2019-01-11T14:56:56.007Z,100690.23
2019-01-11T15:02:02.098Z,100684.84
2019-01-11T15:07:07.864Z,100673.25
2019-01-11T15:12:14.047Z,100669.98
2019-01-11T15:17:21.292Z,100659.44
2019-01-11T15:22:31.340Z,100662.33
2019-01-11T15:27:36.999Z,100665.02
2019-01-11T15:32:43.178Z,100660.52
2019-01-11T15:37:48.925Z,100647.81
2019-01-11T15:42:55.042Z,100634.33
2019-01-11T15:48:00.616Z,100638.77
2019-01-11T15:53:06.228Z,100635.71
2019-01-11T15:58:12.362Z,100607.56
2019-01-11T16:03:18.621Z,100632.05
2019-01-11T16:08:24.370Z,100614.59
2019-01-11T16:13:29.948Z,100608.00
2019-01-11T16:18:35.539Z,100610.99
2019-01-11T16:23:41.383Z,100606.03
2019-01-11T16:28:47.271Z,100606.41
2019-01-11T16:33:52.884Z,100602.80
2019-01-11T16:38:59.018Z,100606.42
2019-01-11T16:44:06.179Z,100600.84
2019-01-11T16:49:11.964Z,100601.36
2019-01-11T16:54:18.638Z,100617.44
2019-01-11T16:59:24.716Z,100603.63
2019-01-11T17:04:30.418Z,100603.50
2019-01-11T17:09:36.234Z,100609.73
2019-01-11T17:14:43.068Z,100608.92
2019-01-11T17:19:49.117Z,100609.53
2019-01-11T17:24:55.494Z,100610.51
2019-01-11T17:30:01.811Z,100622.43
2019-01-11T17:35:07.848Z,100614.74
2019-01-11T17:40:13.712Z,100617.82
2019-01-11T17:45:20.437Z,100620.55
2019-01-11T17:50:26.370Z,100606.21
2019-01-11T17:55:33.909Z,100619.45
2019-01-11T18:00:41.422Z,100626.76
2019-01-11T18:05:48.220Z,100631.05
2019-01-11T18:10:54.443Z,100626.65
2019-01-11T18:16:00.177Z,100627.06
2019-01-11T18:21:08.934Z,100634.53
2019-01-11T18:26:15.383Z,100636.07
2019-01-11T18:31:24.645Z,100641.34
2019-01-11T18:36:32.048Z,100643.89
2019-01-11T18:41:37.743Z,100647.20
2019-01-11T18:46:43.910Z,100649.34
2019-01-11T18:51:51.417Z,100649.98
2019-01-11T18:56:59.741Z,100649.30
2019-01-11T19:02:06.903Z,100650.06
2019-01-11T19:07:13.650Z,100643.77
2019-01-11T19:12:20.230Z,100651.69
2019-01-11T19:17:27.168Z,100657.33
2019-01-11T19:22:32.825Z,100661.23
2019-01-11T19:27:39.403Z,100656.70
2019-01-11T19:32:45.730Z,100658.77
2019-01-11T19:37:51.391Z,100660.69
2019-01-11T19:42:57.926Z,100658.73
2019-01-11T19:48:04.188Z,100668.63
2019-01-11T19:53:10.692Z,100655.19
2019-01-11T19:58:17.279Z,100663.81
2019-01-11T20:03:22.981Z,100670.24
2019-01-11T20:08:30.183Z,100655.80
2019-01-11T20:13:35.770Z,100664.11
2019-01-11T20:18:42.126Z,100662.41
2019-01-11T20:23:48.256Z,100663.47
2019-01-11T20:28:54.176Z,100662.08
2019-01-11T20:34:00.432Z,100675.83
2019-01-11T20:39:08.098Z,100671.77
2019-01-11T20:44:15.581Z,100664.70
2019-01-11T20:49:24.622Z,100674.09
2019-01-11T20:54:31.180Z,100677.40
2019-01-11T20:59:36.947Z,100691.41
2019-01-11T21:04:42.863Z,100675.91
2019-01-11T21:09:49.118Z,100678.13
2019-01-11T21:14:58.355Z,100685.54
2019-01-11T21:20:05.889Z,100680.86
2019-01-11T21:25:15.257Z,100693.03
2019-01-11T21:30:23.781Z,100701.39
2019-01-11T21:35:30.052Z,100691.41
2019-01-11T21:40:36.467Z,100706.65
2019-01-11T21:45:42.613Z,100703.22
2019-01-11T21:50:48.549Z,100698.53
2019-01-11T21:55:54.512Z,100700.00
2019-01-11T22:01:00.420Z,100714.45
2019-01-11T22:06:06.208Z,100715.05
2019-01-11T22:11:12.714Z,100724.95
2019-01-11T22:16:18.606Z,100728.00
2019-01-11T22:21:25.616Z,100727.54
2019-01-11T22:26:31.364Z,100730.81
2019-01-11T22:31:37.360Z,100722.59
2019-01-11T22:36:43.148Z,100719.52
2019-01-11T22:41:49.366Z,100721.04
2019-01-11T22:46:55.452Z,100720.89
2019-01-11T22:52:02.563Z,100737.78
2019-01-11T22:57:08.959Z,100722.30
2019-01-11T23:02:17.681Z,100736.52
2019-01-11T23:07:26.557Z,100748.55
2019-01-11T23:12:35.222Z,100740.34
2019-01-11T23:17:46.274Z,100732.91
2019-01-11T23:22:52.095Z,100736.19
2019-01-11T23:27:58.115Z,100744.84
2019-01-11T23:33:04.330Z,100750.45
2019-01-11T23:38:11.198Z,100743.44
2019-01-11T23:43:16.844Z,100762.17
2019-01-11T23:48:22.433Z,100767.75
2019-01-11T23:53:29.616Z,100757.14
2019-01-11T23:58:35.477Z,100765.19
